Time;durP1;ratioP1;P1;durP2;ratioP2;P2;SDS_P1;SDS_P2;PMS_P1;PMS_P2;Temp;Humidity;BMP_temperature;BMP_pressure;BME280_temperature;BME280_humidity;BME280_pressure;Samples;Min_cycle;Max_cycle;Signal;HPM_P1;HPM_P2
2021/05/06 00:30:09;;;;;;;;;;;;;;;19.95;31.45;99357.00;4416109;32;19976;-51
2021/05/06 00:32:36;;;;;;;;;;;;;;;19.99;31.47;99352.59;4416819;32;20439;-50
2021/05/06 00:35:02;;;;;;;;;;;;;;;20.03;31.27;99356.97;4432195;32;19950;-49
2021/05/06 00:37:28;;;;;;;;;;;;;;;20.03;31.20;99357.88;4432376;32;20043;-53
2021/05/06 00:40:02;;;;;;;;;;;;;;;19.99;31.47;99357.88;4418825;32;19992;-52
2021/05/06 01:06:17;;;;;;;;;;;;;;;19.98;31.43;99364.06;4417085;32;20329;-50
2021/05/06 01:08:56;;;;;;;;;;;;;;;19.96;31.48;99363.19;4420269;32;20290;-51
2021/05/06 01:11:31;;;;;;;;;;;;;;;19.94;31.44;99348.22;4431840;32;20056;-48
2021/05/06 01:13:57;;;;;;;;;;;;;;;19.89;31.62;99346.44;4428534;32;19981;-52
2021/05/06 01:16:23;;;;;;;;;;;;;;;19.91;31.43;99342.00;4416850;32;20373;-50
2021/05/06 01:18:49;;;;;;;;;;;;;;;19.92;31.52;99352.59;4419593;32;19949;-49
2021/05/06 01:21:15;;;;;;;;;;;;;;;19.91;31.48;99342.00;4432186;32;19965;-51
2021/05/06 01:23:43;;;;;;;;;;;;;;;19.88;31.61;99342.88;4432016;32;19973;-48
2021/05/06 01:26:09;;;;;;;;;;;;;;;19.90;31.40;99333.19;4418831;32;19969;-53
2021/05/06 01:28:38;;;;;;;;;;;;;;;19.94;31.46;99331.47;4419827;32;19938;-48
2021/05/06 01:31:09;;;;;;;;;;;;;;;19.94;31.38;99332.34;4419096;32;20001;-52
2021/05/06 01:36:17;;;;;;;;;;;;;;;19.87;31.46;99330.56;4419266;32;19958;-54
2021/05/06 01:39:09;;;;;;;;;;;;;;;19.85;31.44;99327.06;4419147;32;20380;-53
2021/05/06 01:58:11;;;;;;;;;;;;;;;19.88;31.27;99321.75;4428486;32;19964;-50
2021/05/06 02:00:41;;;;;;;;;;;;;;;19.90;31.37;99322.63;4424703;32;19993;-52
2021/05/06 02:03:06;;;;;;;;;;;;;;;19.91;31.43;99319.09;4418770;32;19946;-47
2021/05/06 02:05:32;;;;;;;;;;;;;;;19.93;31.35;99322.63;4426392;32;20256;-48
2021/05/06 02:07:58;;;;;;;;;;;;;;;19.86;31.38;99318.25;4434041;32;19962;-51
2021/05/06 02:10:25;;;;;;;;;;;;;;;19.89;31.21;99333.22;4425766;32;19969;-49
2021/05/06 02:12:51;;;;;;;;;;;;;;;19.82;31.45;99331.47;4419193;32;19962;-51
2021/05/06 02:15:22;;;;;;;;;;;;;;;19.92;31.15;99318.25;4424808;32;20429;-52
2021/05/06 02:17:48;;;;;;;;;;;;;;;19.92;31.36;99312.97;4434130;32;19973;-52
2021/05/06 02:20:15;;;;;;;;;;;;;;;19.82;31.39;99311.22;4432758;32;19983;-55
2021/05/06 02:22:41;;;;;;;;;;;;;;;19.79;31.62;99311.19;4433663;32;20000;-51
2021/05/06 02:25:07;;;;;;;;;;;;;;;19.87;31.56;99314.72;4415319;32;19993;-50
2021/05/06 02:27:33;;;;;;;;;;;;;;;19.90;31.29;99309.41;4404091;32;19962;-54
2021/05/06 02:29:59;;;;;;;;;;;;;;;19.84;31.39;99305.91;4406200;32;19984;-48
2021/05/06 02:32:25;;;;;;;;;;;;;;;19.86;31.36;99305.03;4403744;32;19966;-53
2021/05/06 02:34:51;;;;;;;;;;;;;;;19.84;31.29;99298.88;4405156;32;19979;-51
2021/05/06 02:37:18;;;;;;;;;;;;;;;19.88;31.24;99303.25;4418380;32;20279;-48
2021/05/06 02:39:45;;;;;;;;;;;;;;;19.80;31.25;99303.28;4419069;32;19954;-53
2021/05/06 02:42:11;;;;;;;;;;;;;;;19.87;31.25;99304.16;4416692;32;19953;-49
2021/05/06 02:44:37;;;;;;;;;;;;;;;19.88;31.30;99305.91;4418913;32;19995;-50
2021/05/06 02:47:04;;;;;;;;;;;;;;;19.90;31.39;99304.12;4418669;32;19957;-52
2021/05/06 02:49:29;;;;;;;;;;;;;;;19.84;31.37;99293.59;4418498;32;19939;-51
2021/05/06 02:52:03;;;;;;;;;;;;;;;19.81;31.28;99301.50;4405838;32;19993;-50
2021/05/06 02:54:35;;;;;;;;;;;;;;;19.83;31.28;99297.13;4418594;32;19943;-50
2021/05/06 02:57:17;;;;;;;;;;;;;;;19.76;31.30;99279.50;4430301;32;19942;-50
2021/05/06 03:02:49;;;;;;;;;;;;;;;19.73;31.51;99276.87;4403786;32;19960;-49
2021/05/06 03:05:15;;;;;;;;;;;;;;;19.63;31.67;99271.63;4402706;32;20389;-51
2021/05/06 03:07:44;;;;;;;;;;;;;;;19.69;31.61;99256.63;4422036;32;20006;-49
2021/05/06 03:23:26;;;;;;;;;;;;;;;19.64;31.72;99262.81;4417965;32;19992;-50
2021/05/06 03:25:52;;;;;;;;;;;;;;;19.57;31.83;99263.72;4417807;32;19997;-48
2021/05/06 03:28:27;;;;;;;;;;;;;;;19.64;31.61;99270.72;4418038;32;19964;-49
2021/05/06 03:41:54;;;;;;;;;;;;;;;19.71;31.49;99255.75;4422702;32;19971;-49
2021/05/06 04:27:08;;;;;;;;;;;;;;;19.19;32.22;99251.44;4416662;32;20014;-48
2021/05/06 04:38:01;;;;;;;;;;;;;;;19.46;31.68;99247.03;4410805;32;19990;-49
2021/05/06 04:44:02;;;;;;;;;;;;;;;19.36;32.04;99244.38;4412557;32;20035;-52
2021/05/06 05:04:37;;;;;;;;;;;;;;;19.35;32.15;99240.00;4419686;32;20370;-51
2021/05/06 05:09:54;;;;;;;;;;;;;;;19.38;32.01;99232.06;4421534;32;20055;-49
2021/05/06 05:18:02;;;;;;;;;;;;;;;19.30;32.30;99236.47;4425868;32;20311;-48
2021/05/06 05:20:46;;;;;;;;;;;;;;;19.24;32.41;99234.72;4420342;32;19950;-48
2021/05/06 05:25:57;;;;;;;;;;;;;;;19.21;32.50;99237.34;4428537;32;19950;-49
2021/05/06 05:28:23;;;;;;;;;;;;;;;19.26;32.24;99236.47;4425893;32;20053;-53
2021/05/06 05:30:48;;;;;;;;;;;;;;;19.36;32.24;99235.56;4427799;32;19953;-52
2021/05/06 05:33:17;;;;;;;;;;;;;;;19.21;32.43;99239.13;4426601;32;19972;-51
2021/05/06 05:36:10;;;;;;;;;;;;;;;19.32;32.35;99236.47;4424870;32;19976;-51
2021/05/06 05:38:41;;;;;;;;;;;;;;;19.34;32.26;99238.25;4424686;32;19955;-51
2021/05/06 05:54:38;;;;;;;;;;;;;;;19.21;32.52;99240.00;4423934;32;19980;-50
2021/05/06 05:57:08;;;;;;;;;;;;;;;19.28;32.59;99240.88;4423649;32;19981;-53
2021/05/06 05:59:34;;;;;;;;;;;;;;;19.35;32.19;99237.34;4424994;32;20273;-50
2021/05/06 06:02:00;;;;;;;;;;;;;;;19.40;32.27;99240.00;4426106;32;19954;-50
2021/05/06 06:04:26;;;;;;;;;;;;;;;19.43;32.17;99249.66;4424878;32;19991;-48
2021/05/06 06:06:52;;;;;;;;;;;;;;;19.51;32.00;99239.97;4419116;32;19961;-51
2021/05/06 06:09:18;;;;;;;;;;;;;;;19.54;31.87;99231.16;4424780;32;20004;-52
2021/05/06 06:11:43;;;;;;;;;;;;;;;19.43;32.05;99233.81;4431933;32;20050;-51
2021/05/06 06:14:09;;;;;;;;;;;;;;;19.50;32.16;99232.91;4427374;32;19942;-51
2021/05/06 06:16:38;;;;;;;;;;;;;;;19.43;32.25;99228.53;4427954;32;19994;-53
2021/05/06 06:19:05;;;;;;;;;;;;;;;19.43;32.22;99234.69;4420236;32;19964;-48
2021/05/06 06:21:38;;;;;;;;;;;;;;;19.53;32.31;99235.53;4417331;32;19961;-47
2021/05/06 06:24:04;;;;;;;;;;;;;;;19.63;31.93;99236.41;4416054;32;19949;-50
2021/05/06 06:26:30;;;;;;;;;;;;;;;19.72;31.69;99235.50;4430337;32;19971;-50
2021/05/06 06:28:57;;;;;;;;;;;;;;;19.70;31.83;99240.78;4428968;32;20384;-48
2021/05/06 06:31:27;;;;;;;;;;;;;;;19.71;31.76;99236.41;4415189;32;20094;-47
2021/05/06 06:33:53;;;;;;;;;;;;;;;19.75;31.65;99243.41;4417846;32;19973;-48
2021/05/06 06:36:18;;;;;;;;;;;;;;;19.75;31.54;99235.50;4430723;32;19953;-51
2021/05/06 06:38:44;;;;;;;;;;;;;;;19.79;31.65;99243.41;4418103;32;19958;-48
2021/05/06 06:41:12;;;;;;;;;;;;;;;19.66;31.88;99239.06;4429997;32;19986;-48
2021/05/06 06:43:40;;;;;;;;;;;;;;;19.63;31.93;99237.28;4431247;32;20330;-50
2021/05/06 06:46:06;;;;;;;;;;;;;;;19.67;31.88;99233.75;4415582;32;19970;-50
2021/05/06 06:48:32;;;;;;;;;;;;;;;19.64;32.05;99214.41;4415562;32;19953;-48
2021/05/06 06:50:57;;;;;;;;;;;;;;;19.64;31.97;99217.06;4426198;32;19957;-50
2021/05/06 06:53:23;;;;;;;;;;;;;;;19.69;31.88;99219.66;4429125;32;19966;-48
2021/05/06 06:55:49;;;;;;;;;;;;;;;19.84;31.55;99209.06;4415980;32;19989;-48
2021/05/06 06:58:16;;;;;;;;;;;;;;;19.85;31.54;99212.56;4415515;32;19951;-48
2021/05/06 07:00:42;;;;;;;;;;;;;;;19.80;31.68;99212.56;4424069;32;19954;-51
2021/05/06 07:03:08;;;;;;;;;;;;;;;19.76;32.04;99216.13;4416311;32;20005;-49
2021/05/06 07:05:34;;;;;;;;;;;;;;;19.84;31.70;99214.34;4431348;32;20349;-52
2021/05/06 07:08:00;;;;;;;;;;;;;;;19.87;31.76;99218.72;4430567;32;20350;-48
2021/05/06 07:10:25;;;;;;;;;;;;;;;19.83;31.71;99220.50;4421854;32;20381;-48
2021/05/06 07:12:51;;;;;;;;;;;;;;;19.82;31.70;99229.31;4415383;32;19958;-54
2021/05/06 07:15:17;;;;;;;;;;;;;;;19.86;31.82;99231.06;4420411;32;20001;-47
2021/05/06 07:17:43;;;;;;;;;;;;;;;19.76;32.04;99226.69;4428416;32;19966;-51
2021/05/06 07:20:09;;;;;;;;;;;;;;;19.90;31.58;99214.28;4422748;32;19969;-52
2021/05/06 07:22:35;;;;;;;;;;;;;;;19.98;31.42;99211.66;4414372;32;20392;-50
2021/05/06 07:25:01;;;;;;;;;;;;;;;19.93;31.55;99208.16;4418715;32;19973;-47
2021/05/06 07:27:28;;;;;;;;;;;;;;;19.98;31.50;99218.72;4429917;32;19938;-49
2021/05/06 07:29:53;;;;;;;;;;;;;;;19.96;31.52;99218.72;4427400;32;20454;-50
2021/05/06 07:32:19;;;;;;;;;;;;;;;19.99;31.43;99221.34;4424118;32;19973;-48
2021/05/06 07:34:45;;;;;;;;;;;;;;;20.01;31.42;99216.06;4430828;32;19968;-47
2021/05/06 07:37:11;;;;;;;;;;;;;;;20.05;31.40;99212.50;4429015;32;19957;-49
2021/05/06 07:39:37;;;;;;;;;;;;;;;20.05;31.39;99213.41;4430546;32;20307;-48
2021/05/06 07:42:03;;;;;;;;;;;;;;;20.05;31.43;99213.41;4414743;32;19953;-50
2021/05/06 07:44:29;;;;;;;;;;;;;;;20.09;31.35;99219.56;4429900;32;19950;-50
2021/05/06 07:47:08;;;;;;;;;;;;;;;20.07;31.46;99211.62;4417266;32;20445;-47
2021/05/06 07:49:34;;;;;;;;;;;;;;;20.07;31.44;99216.03;4412739;32;19950;-47
2021/05/06 07:52:00;;;;;;;;;;;;;;;19.99;31.54;99216.03;4428074;32;19985;-48
2021/05/06 07:54:26;;;;;;;;;;;;;;;19.97;31.61;99215.19;4423801;32;19965;-47
2021/05/06 07:56:52;;;;;;;;;;;;;;;19.98;31.63;99216.06;4416986;32;20569;-52
2021/05/06 07:59:18;;;;;;;;;;;;;;;20.04;31.53;99216.03;4413056;32;19982;-50
2021/05/06 08:01:44;;;;;;;;;;;;;;;20.04;31.59;99216.03;4424984;32;20370;-49
2021/05/06 08:04:10;;;;;;;;;;;;;;;20.07;31.52;99206.31;4422397;32;19984;-49
2021/05/06 08:06:35;;;;;;;;;;;;;;;20.08;31.55;99207.22;4421818;32;20039;-52
2021/05/06 08:09:01;;;;;;;;;;;;;;;20.10;31.52;99208.09;4429700;32;19950;-54
2021/05/06 08:11:27;;;;;;;;;;;;;;;20.05;31.65;99213.41;4421131;32;19954;-50
2021/05/06 08:13:53;;;;;;;;;;;;;;;20.08;31.65;99213.38;4413343;32;19966;-50
2021/05/06 08:16:19;;;;;;;;;;;;;;;20.06;31.66;99216.91;4420067;32;20375;-50
2021/05/06 08:18:45;;;;;;;;;;;;;;;20.06;31.69;99211.59;4429243;32;19954;-51
2021/05/06 08:21:11;;;;;;;;;;;;;;;20.01;31.80;99202.84;4422563;32;19951;-47
2021/05/06 08:23:37;;;;;;;;;;;;;;;20.01;31.83;99208.13;4413621;32;20308;-48
2021/05/06 08:26:03;;;;;;;;;;;;;;;20.00;31.84;99209.91;4411685;32;19949;-51
2021/05/06 08:28:29;;;;;;;;;;;;;;;20.05;31.80;99212.50;4415286;32;19942;-48
2021/05/06 08:30:55;;;;;;;;;;;;;;;20.11;31.66;99211.59;4418600;32;19969;-49
2021/05/06 08:33:21;;;;;;;;;;;;;;;20.13;31.65;99207.19;4417975;32;19966;-54
2021/05/06 08:35:46;;;;;;;;;;;;;;;20.02;31.96;99212.53;4422850;32;20021;-52
2021/05/06 08:38:12;;;;;;;;;;;;;;;20.10;31.75;99199.25;4420506;32;20009;-54
2021/05/06 08:40:38;;;;;;;;;;;;;;;19.80;32.10;99209.94;4433028;32;20004;-48
2021/05/06 08:43:06;;;;;;;;;;;;;;;19.85;32.06;99202.88;4417122;32;20318;-52
2021/05/06 08:45:35;;;;;;;;;;;;;;;19.90;32.01;99201.09;4418532;32;19934;-53
2021/05/06 08:48:01;;;;;;;;;;;;;;;19.94;32.04;99205.53;4432106;32;19972;-53
2021/05/06 08:50:27;;;;;;;;;;;;;;;20.06;31.93;99203.69;4429848;32;19962;-50
2021/05/06 08:52:53;;;;;;;;;;;;;;;20.18;31.79;99198.34;4426355;32;19962;-52
2021/05/06 08:55:19;;;;;;;;;;;;;;;20.27;31.65;99202.72;4427190;32;20305;-52
2021/05/06 08:57:45;;;;;;;;;;;;;;;20.31;31.66;99200.91;4426080;32;19962;-49
2021/05/06 09:00:10;;;;;;;;;;;;;;;20.27;31.76;99196.53;4426571;32;20061;-52
2021/05/06 09:02:36;;;;;;;;;;;;;;;20.20;31.93;99200.97;4431065;32;19954;-49
2021/05/06 09:05:02;;;;;;;;;;;;;;;20.25;31.84;99198.31;4419877;32;19939;-47
2021/05/06 09:07:28;;;;;;;;;;;;;;;20.30;31.85;99197.41;4423386;32;19992;-53
2021/05/06 09:09:54;;;;;;;;;;;;;;;20.29;31.91;99189.47;4428873;32;19980;-51
2021/05/06 09:12:20;;;;;;;;;;;;;;;20.16;32.16;99189.53;4421189;32;19999;-53
2021/05/06 09:14:46;;;;;;;;;;;;;;;20.22;32.16;99192.16;4433293;32;20326;-50
2021/05/06 09:17:12;;;;;;;;;;;;;;;20.35;32.01;99184.16;4429358;32;20005;-54
2021/05/06 09:19:38;;;;;;;;;;;;;;;20.13;32.60;99179.00;4424213;32;20008;-52
2021/05/06 09:22:04;;;;;;;;;;;;;;;20.18;32.56;99177.19;4428177;32;19961;-53
2021/05/06 09:24:35;;;;;;;;;;;;;;;20.20;32.51;99175.44;4419487;32;20050;-53
2021/05/06 09:27:01;;;;;;;;;;;;;;;20.39;32.24;99180.59;4425879;32;20064;-49
2021/05/06 09:29:26;;;;;;;;;;;;;;;20.34;32.43;99171.81;4431458;32;19954;-51
2021/05/06 09:31:52;;;;;;;;;;;;;;;20.44;32.32;99184.09;4416637;32;19958;-50
2021/05/06 09:34:18;;;;;;;;;;;;;;;20.43;32.38;99171.75;4426550;32;19976;-51
2021/05/06 09:36:44;;;;;;;;;;;;;;;20.53;32.26;99172.56;4433234;32;20290;-50
2021/05/06 09:39:10;;;;;;;;;;;;;;;20.56;32.30;99161.97;4432408;32;19934;-54
2021/05/06 09:41:36;;;;;;;;;;;;;;;20.66;32.20;99173.34;4417278;32;20593;-51
2021/05/06 09:44:02;;;;;;;;;;;;;;;20.60;32.35;99163.69;4422828;32;19951;-51
2021/05/06 09:46:31;;;;;;;;;;;;;;;20.64;32.38;99167.19;4423898;32;20476;-49
2021/05/06 09:48:57;;;;;;;;;;;;;;;20.65;32.30;99168.94;4419273;32;19950;-52
2021/05/06 09:51:23;;;;;;;;;;;;;;;20.50;32.57;99162.87;4416890;32;20084;-51
2021/05/06 09:53:48;;;;;;;;;;;;;;;20.67;32.30;99156.56;4430226;32;20120;-54
2021/05/06 09:56:14;;;;;;;;;;;;;;;20.74;32.30;99158.28;4431998;32;19961;-52
2021/05/06 09:58:40;;;;;;;;;;;;;;;20.82;32.27;99154.75;4421912;32;20268;-53
2021/05/06 10:01:06;;;;;;;;;;;;;;;20.84;32.37;99150.31;4417379;32;19953;-53
2021/05/06 10:03:32;;;;;;;;;;;;;;;20.82;32.59;99155.59;4425384;32;19958;-53
2021/05/06 10:05:58;;;;;;;;;;;;;;;20.81;32.66;99152.97;4431413;32;19946;-52
2021/05/06 10:08:24;;;;;;;;;;;;;;;20.83;32.67;99153.84;4423323;32;19962;-51
2021/05/06 10:10:50;;;;;;;;;;;;;;;20.94;32.55;99136.12;4416569;32;19955;-55
2021/05/06 10:13:15;;;;;;;;;;;;;;;20.96;32.59;99142.25;4428236;32;19979;-51
2021/05/06 10:15:42;;;;;;;;;;;;;;;21.01;32.66;99145.72;4431942;32;19987;-50
2021/05/06 10:18:08;;;;;;;;;;;;;;;21.05;32.46;99134.25;4431097;32;19961;-51
2021/05/06 10:20:34;;;;;;;;;;;;;;;21.08;32.39;99137.75;4432536;32;20363;-50
2021/05/06 10:23:00;;;;;;;;;;;;;;;21.06;32.48;99136.00;4426911;32;20261;-49
2021/05/06 10:25:26;;;;;;;;;;;;;;;21.15;32.45;99123.53;4416204;32;19962;-48
2021/05/06 10:27:52;;;;;;;;;;;;;;;21.21;32.39;99123.47;4419414;32;20331;-52
2021/05/06 10:30:18;;;;;;;;;;;;;;;21.16;32.45;99119.97;4431687;32;19991;-49
2021/05/06 10:32:44;;;;;;;;;;;;;;;21.28;32.29;99113.69;4430596;32;19969;-49
2021/05/06 10:35:10;;;;;;;;;;;;;;;21.25;32.30;99113.72;4416374;32;19950;-46
2021/05/06 10:37:36;;;;;;;;;;;;;;;21.36;32.18;99105.66;4417676;32;20431;-48
2021/05/06 10:40:02;;;;;;;;;;;;;;;21.42;32.17;99105.56;4429923;32;19949;-51
2021/05/06 10:42:28;;;;;;;;;;;;;;;21.49;32.00;99096.66;4432215;32;20438;-51
2021/05/06 10:44:54;;;;;;;;;;;;;;;21.56;32.04;99082.47;4432578;32;19961;-53
2021/05/06 10:47:20;;;;;;;;;;;;;;;21.57;31.90;99092.16;4432157;32;20044;-52
2021/05/06 10:49:46;;;;;;;;;;;;;;;21.56;31.92;99077.16;4428657;32;20013;-52
2021/05/06 10:52:12;;;;;;;;;;;;;;;21.70;31.73;99073.47;4424008;32;19949;-53
2021/05/06 10:54:39;;;;;;;;;;;;;;;21.73;31.71;99068.12;4423971;32;19961;-52
2021/05/06 10:57:05;;;;;;;;;;;;;;;21.78;31.76;99063.63;4421994;32;19961;-51
2021/05/06 10:59:31;;;;;;;;;;;;;;;21.80;31.81;99059.22;4423664;32;19986;-51
2021/05/06 11:01:58;;;;;;;;;;;;;;;21.80;31.85;99064.50;4424649;32;19976;-52
2021/05/06 11:04:24;;;;;;;;;;;;;;;21.85;31.87;99054.69;4425544;32;19984;-54
2021/05/06 11:06:50;;;;;;;;;;;;;;;21.89;31.86;99053.75;4421149;32;20391;-51
2021/05/06 11:09:16;;;;;;;;;;;;;;;21.90;31.90;99054.63;4424190;32;19954;-55
2021/05/06 11:11:42;;;;;;;;;;;;;;;21.95;31.94;99051.91;4424011;32;19983;-53
2021/05/06 11:14:10;;;;;;;;;;;;;;;21.97;31.99;99052.75;4425088;32;20008;-53
2021/05/06 11:16:36;;;;;;;;;;;;;;;21.99;32.03;99056.25;4425173;32;20719;-50
2021/05/06 11:19:02;;;;;;;;;;;;;;;22.03;32.07;99057.97;4425329;32;19992;-54
2021/05/06 11:21:28;;;;;;;;;;;;;;;22.06;32.03;99042.03;4433012;32;19973;-52
2021/05/06 11:23:53;;;;;;;;;;;;;;;22.10;31.98;99033.13;4428748;32;19981;-53
2021/05/06 11:26:19;;;;;;;;;;;;;;;22.12;31.92;99023.34;4415950;32;19953;-53
2021/05/06 11:28:45;;;;;;;;;;;;;;;22.16;31.73;99030.38;4418557;32;20319;-53
2021/05/06 11:31:11;;;;;;;;;;;;;;;22.21;31.67;99037.38;4431288;32;19934;-52
2021/05/06 11:33:37;;;;;;;;;;;;;;;22.25;31.52;99025.81;4430717;32;19942;-53
2021/05/06 11:36:04;;;;;;;;;;;;;;;22.27;31.34;99016.03;4424480;32;19994;-54
2021/05/06 11:38:30;;;;;;;;;;;;;;;22.29;31.17;99015.13;4425493;32;20254;-55
2021/05/06 11:40:56;;;;;;;;;;;;;;;22.33;31.15;99008.00;4416905;32;19965;-53
2021/05/06 11:43:21;;;;;;;;;;;;;;;22.36;31.05;98994.66;4423706;32;19964;-54
2021/05/06 11:45:47;;;;;;;;;;;;;;;22.35;31.07;98998.22;4424276;32;20349;-53
2021/05/06 11:48:15;;;;;;;;;;;;;;;22.35;31.07;99003.53;4422339;32;19950;-52
2021/05/06 11:50:41;;;;;;;;;;;;;;;22.35;31.11;99007.94;4421830;32;19938;-53
2021/05/06 11:53:07;;;;;;;;;;;;;;;22.34;31.17;99001.78;4423579;32;20070;-50
2021/05/06 11:55:33;;;;;;;;;;;;;;;22.32;31.24;98998.28;4425708;32;19959;-55
2021/05/06 11:57:59;;;;;;;;;;;;;;;22.30;31.44;98994.78;4427634;32;19956;-53
2021/05/06 12:00:25;;;;;;;;;;;;;;;22.28;31.42;98997.47;4422250;32;20284;-52
2021/05/06 12:02:51;;;;;;;;;;;;;;;22.23;30.98;99003.75;4419235;32;20017;-47
2021/05/06 12:05:17;;;;;;;;;;;;;;;22.01;31.29;98997.03;4422035;32;19954;-47
2021/05/06 12:07:43;;;;;;;;;;;;;;;22.04;31.00;98981.06;4416151;32;20325;-50
2021/05/06 12:10:09;;;;;;;;;;;;;;;21.95;31.20;98983.88;4419791;32;20320;-49
2021/05/06 12:12:35;;;;;;;;;;;;;;;21.79;31.61;98980.59;4417434;32;19965;-50
2021/05/06 12:15:01;;;;;;;;;;;;;;;21.68;31.62;98971.94;4426825;32;20290;-50
2021/05/06 12:17:27;;;;;;;;;;;;;;;21.68;31.78;98969.31;4424221;32;20018;-51
2021/05/06 12:19:53;;;;;;;;;;;;;;;21.62;31.80;98965.78;4424529;32;19954;-48
2021/05/06 12:22:18;;;;;;;;;;;;;;;21.69;31.70;98949.84;4425248;32;20339;-50
2021/05/06 12:24:45;;;;;;;;;;;;;;;22.05;31.36;98950.16;4422879;32;19958;-49
2021/05/06 12:27:10;;;;;;;;;;;;;;;22.20;31.18;98946.34;4427300;32;19985;-50
2021/05/06 12:29:36;;;;;;;;;;;;;;;22.28;31.07;98948.84;4427784;32;20373;-49
2021/05/06 12:32:02;;;;;;;;;;;;;;;22.23;31.15;98951.59;4413844;32;19965;-51
2021/05/06 12:34:28;;;;;;;;;;;;;;;22.16;31.12;98956.16;4413593;32;20282;-51
2021/05/06 12:36:54;;;;;;;;;;;;;;;22.02;31.26;98947.53;4428577;32;20320;-51
2021/05/06 12:39:20;;;;;;;;;;;;;;;21.92;31.62;98936.22;4422860;32;19950;-52
2021/05/06 12:41:46;;;;;;;;;;;;;;;22.08;31.39;98942.13;4420394;32;20006;-51
2021/05/06 12:44:12;;;;;;;;;;;;;;;21.92;31.65;98945.97;4430086;32;19964;-49
2021/05/06 12:46:38;;;;;;;;;;;;;;;21.77;31.89;98921.44;4422206;32;20422;-52
2021/05/06 12:49:04;;;;;;;;;;;;;;;21.76;31.96;98914.41;4417122;32;19942;-52
2021/05/06 12:51:30;;;;;;;;;;;;;;;21.92;31.87;98922.97;4416920;32;20298;-47
2021/05/06 12:53:56;;;;;;;;;;;;;;;21.88;31.89;98924.78;4423251;32;20293;-49
2021/05/06 12:56:22;;;;;;;;;;;;;;;22.11;31.75;98920.88;4419993;32;19999;-53
2021/05/06 12:58:48;;;;;;;;;;;;;;;22.15;31.56;98900.47;4427697;32;19989;-51
2021/05/06 13:01:14;;;;;;;;;;;;;;;22.05;31.83;98905.09;4427977;32;19954;-49
2021/05/06 13:03:44;;;;;;;;;;;;;;;22.14;31.74;98904.91;4415740;32;20027;-48
2021/05/06 13:06:10;;;;;;;;;;;;;;;22.20;31.73;98901.25;4420111;32;19950;-50
2021/05/06 13:08:36;;;;;;;;;;;;;;;22.34;31.48;98903.66;4428622;32;19972;-53
2021/05/06 13:11:02;;;;;;;;;;;;;;;22.20;31.64;98908.34;4425500;32;19954;-53
2021/05/06 13:13:27;;;;;;;;;;;;;;;22.22;31.51;98901.25;4428530;32;20465;-51
2021/05/06 13:15:53;;;;;;;;;;;;;;;22.09;31.83;98893.50;4425301;32;19979;-48
2021/05/06 13:18:19;;;;;;;;;;;;;;;22.17;31.62;98910.16;4427211;32;19954;-53
2021/05/06 13:20:45;;;;;;;;;;;;;;;22.26;32.92;98898.50;4421659;32;19993;-50
2021/05/06 13:23:11;;;;;;;;;;;;;;;22.31;32.07;98896.63;4426475;32;20265;-50
2021/05/06 13:25:37;;;;;;;;;;;;;;;22.30;31.59;98894.88;4422829;32;20286;-52
2021/05/06 13:28:03;;;;;;;;;;;;;;;22.33;31.64;98893.97;4423796;32;19954;-51
2021/05/06 13:30:29;;;;;;;;;;;;;;;22.37;31.70;98892.12;4416187;32;19954;-49
2021/05/06 13:32:54;;;;;;;;;;;;;;;22.37;31.63;98869.12;4428449;32;19984;-52
2021/05/06 13:35:20;;;;;;;;;;;;;;;22.39;31.67;98869.94;4420411;32;19988;-49
2021/05/06 13:37:46;;;;;;;;;;;;;;;22.32;32.05;98878.97;4428046;32;19958;-52
2021/05/06 13:40:12;;;;;;;;;;;;;;;22.54;31.58;98882.06;4427659;32;19953;-50
2021/05/06 13:42:38;;;;;;;;;;;;;;;22.55;31.65;98873.22;4420094;32;20005;-52
2021/05/06 13:45:04;;;;;;;;;;;;;;;22.48;32.32;98868.03;4419049;32;20006;-52
2021/05/06 13:47:30;;;;;;;;;;;;;;;22.48;32.05;98857.44;4423080;32;19964;-50
2021/05/06 13:49:56;;;;;;;;;;;;;;;22.56;31.78;98848.44;4417268;32;20316;-53
2021/05/06 13:52:25;;;;;;;;;;;;;;;22.69;31.85;98843.75;4420270;32;19939;-54
2021/05/06 13:54:51;;;;;;;;;;;;;;;22.52;31.99;98856.47;4423547;32;20009;-54
2021/05/06 13:57:16;;;;;;;;;;;;;;;22.62;31.73;98847.44;4427998;32;19961;-51
2021/05/06 13:59:42;;;;;;;;;;;;;;;22.70;31.75;98840.19;4430590;32;20068;-55
2021/05/06 14:02:08;;;;;;;;;;;;;;;22.74;31.67;98839.19;4422646;32;19950;-54
2021/05/06 14:04:34;;;;;;;;;;;;;;;22.79;31.60;98833.78;4423725;32;20383;-55
2021/05/06 14:07:00;;;;;;;;;;;;;;;22.73;31.83;98834.81;4421159;32;19951;-52
2021/05/06 14:09:26;;;;;;;;;;;;;;;22.82;31.61;98833.72;4420410;32;20030;-58
2021/05/06 14:11:52;;;;;;;;;;;;;;;22.41;32.84;98827.50;4422879;32;19950;-57
2021/05/06 14:14:18;;;;;;;;;;;;;;;21.06;34.99;98823.66;4418975;32;19994;-57
2021/05/06 14:16:44;;;;;;;;;;;;;;;20.23;36.90;98828.25;4419115;32;20041;-55
2021/05/06 14:19:12;;;;;;;;;;;;;;;19.88;38.07;98821.53;4424284;32;19977;-57
2021/05/06 14:21:38;;;;;;;;;;;;;;;19.67;37.98;98811.19;4428686;32;20142;-56
2021/05/06 14:24:04;;;;;;;;;;;;;;;19.60;39.34;98811.25;4424868;32;19935;-56
2021/05/06 14:26:30;;;;;;;;;;;;;;;18.98;40.21;98794.13;4422283;32;19961;-57
2021/05/06 14:28:56;;;;;;;;;;;;;;;18.33;41.98;98797.13;4427674;32;20002;-56
2021/05/06 14:31:22;;;;;;;;;;;;;;;18.00;42.39;98796.34;4421397;32;20802;-55
2021/05/06 14:33:48;;;;;;;;;;;;;;;18.11;42.92;98798.09;4419823;32;19986;-52
2021/05/06 14:36:14;;;;;;;;;;;;;;;18.17;41.87;98789.28;4421975;32;19996;-52
2021/05/06 14:38:40;;;;;;;;;;;;;;;18.94;39.77;98798.56;4417864;32;19988;-50
2021/05/06 14:41:05;;;;;;;;;;;;;;;19.29;39.29;98788.63;4411318;32;19965;-48
2021/05/06 14:43:31;;;;;;;;;;;;;;;19.66;38.51;98777.75;4415789;32;19996;-51
2021/05/06 14:45:57;;;;;;;;;;;;;;;20.07;37.59;98772.06;4415479;32;19964;-51
2021/05/06 14:48:23;;;;;;;;;;;;;;;20.38;37.11;98776.97;4425783;32;19957;-53
2021/05/06 14:50:49;;;;;;;;;;;;;;;20.66;36.46;98768.63;4428251;32;20017;-52
2021/05/06 14:53:15;;;;;;;;;;;;;;;20.90;35.98;98758.63;4430231;32;19993;-54
2021/05/06 14:55:41;;;;;;;;;;;;;;;21.05;35.56;98755.75;4429997;32;19958;-53
2021/05/06 14:58:07;;;;;;;;;;;;;;;21.20;35.27;98740.53;4423097;32;20299;-53
2021/05/06 15:00:33;;;;;;;;;;;;;;;21.29;35.02;98727.09;4416245;32;19950;-50
2021/05/06 15:02:58;;;;;;;;;;;;;;;21.40;34.76;98718.09;4421750;32;19993;-52
2021/05/06 15:05:24;;;;;;;;;;;;;;;21.47;34.54;98719.75;4429935;32;20095;-51
2021/05/06 15:07:50;;;;;;;;;;;;;;;21.55;34.35;98715.19;4426796;32;19988;-53
2021/05/06 15:10:16;;;;;;;;;;;;;;;21.62;34.16;98711.50;4417263;32;19972;-53
2021/05/06 15:12:42;;;;;;;;;;;;;;;21.70;33.96;98707.88;4427111;32;20021;-51
2021/05/06 15:15:08;;;;;;;;;;;;;;;21.76;33.79;98705.97;4415788;32;20312;-50
2021/05/06 15:17:34;;;;;;;;;;;;;;;21.81;33.69;98695.28;4417673;32;19954;-50
2021/05/06 15:20:00;;;;;;;;;;;;;;;21.88;33.55;98694.25;4429854;32;19958;-50
2021/05/06 15:22:26;;;;;;;;;;;;;;;21.93;33.48;98698.59;4430172;32;20452;-50
2021/05/06 15:24:52;;;;;;;;;;;;;;;21.95;33.36;98702.94;4430437;32;20342;-47
2021/05/06 15:27:18;;;;;;;;;;;;;;;21.99;33.24;98703.75;4429264;32;20103;-48
2021/05/06 15:29:43;;;;;;;;;;;;;;;22.01;33.19;98707.22;4415926;32;19993;-54
2021/05/06 15:32:11;;;;;;;;;;;;;;;22.04;33.20;98701.91;4414669;32;19954;-52
2021/05/06 15:34:37;;;;;;;;;;;;;;;22.07;33.02;98685.03;4421286;32;19947;-55
2021/05/06 15:37:02;;;;;;;;;;;;;;;22.09;33.05;98684.09;4417797;32;20281;-58
2021/05/06 15:39:28;;;;;;;;;;;;;;;22.11;33.02;98694.69;4424922;32;19977;-55
2021/05/06 15:41:54;;;;;;;;;;;;;;;21.86;33.82;98698.69;4418013;32;19974;-56
2021/05/06 15:44:20;;;;;;;;;;;;;;;21.62;33.80;98708.84;4423072;32;19950;-54
2021/05/06 15:46:46;;;;;;;;;;;;;;;21.70;33.78;98702.56;4423442;32;20306;-56
2021/05/06 15:49:12;;;;;;;;;;;;;;;21.73;33.59;98690.16;4424194;32;20264;-52
2021/05/06 15:51:38;;;;;;;;;;;;;;;21.75;33.32;98682.16;4423499;32;19985;-52
2021/05/06 15:54:06;;;;;;;;;;;;;;;21.79;33.27;98683.81;4421457;32;19982;-55
2021/05/06 15:56:32;;;;;;;;;;;;;;;21.78;33.31;98684.72;4421811;32;20018;-54
2021/05/06 15:59:00;;;;;;;;;;;;;;;21.78;33.35;98676.78;4422233;32;20072;-52
2021/05/06 16:01:26;;;;;;;;;;;;;;;21.81;33.34;98668.78;4422580;32;19957;-55